Aviation Digital Data Service (ADDS)

Output produced by METARs form (1445 UTC 22 April 2021)
found at http://www.aviationweather.gov/metar/data/
 
KEAU 221120Z 2212/2312 VRB03KT P6SM SCT080 
     FM221700 25011KT P6SM SKC 
     FM230100 22005KT P6SM BKN110
       
KRNH 221120Z 2212/2312 23006KT P6SM SKC 
     FM221800 24011G16KT P6SM SCT250 
     FM230000 23007KT P6SM SKC 
     FM231100 19005KT P6SM -SHRA OVC050
       
KMSP 221359Z 2214/2318 25007G12KT P6SM SKC 
     FM221600 24008G18KT P6SM SKC 
     FM230300 21008KT P6SM BKN180 
     FM230900 20006KT P6SM -SHRA SCT035 OVC060 
     FM231100 18006KT P6SM -SHRA BKN025 
     FM231300 16007KT P6SM BKN015